sensor_id;sensor_type;location;lat;lon;timestamp;temperature;humidity
14277;DHT22;7222;57.346;12.150;2023-06-26T00:00:32;16.00;72.90
14277;DHT22;7222;57.346;12.150;2023-06-26T00:02:59;16.00;99.90
14277;DHT22;7222;57.346;12.150;2023-06-26T00:05:27;15.90;99.90
14277;DHT22;7222;57.346;12.150;2023-06-26T00:07:55;15.80;99.90
14277;DHT22;7222;57.346;12.150;2023-06-26T00:10:26;15.80;99.90
14277;DHT22;7222;57.346;12.150;2023-06-26T00:12:54;15.70;99.90
14277;DHT22;7222;57.346;12.150;2023-06-26T00:15:21;15.70;99.90
14277;DHT22;7222;57.346;12.150;2023-06-26T00:17:48;15.60;99.90
14277;DHT22;7222;57.346;12.150;2023-06-26T00:20:16;15.60;99.90
14277;DHT22;7222;57.346;12.150;2023-06-26T00:22:44;15.50;99.90
14277;DHT22;7222;57.346;12.150;2023-06-26T00:25:12;15.50;99.90
14277;DHT22;7222;57.346;12.150;2023-06-26T00:27:38;15.40;99.90
14277;DHT22;7222;57.346;12.150;2023-06-26T00:30:08;15.40;99.90
14277;DHT22;7222;57.346;12.150;2023-06-26T00:32:36;15.40;99.90
14277;DHT22;7222;57.346;12.150;2023-06-26T00:35:04;15.30;99.90
14277;DHT22;7222;57.346;12.150;2023-06-26T00:37:31;15.20;1.00
14277;DHT22;7222;57.346;12.150;2023-06-26T00:39:58;15.20;1.00
14277;DHT22;7222;57.346;12.150;2023-06-26T00:42:25;15.20;1.00
14277;DHT22;7222;57.346;12.150;2023-06-26T00:44:52;15.10;1.00
14277;DHT22;7222;57.346;12.150;2023-06-26T00:47:21;15.10;1.00
14277;DHT22;7222;57.346;12.150;2023-06-26T00:49:48;15.00;1.00
14277;DHT22;7222;57.346;12.150;2023-06-26T00:52:15;15.00;1.00
14277;DHT22;7222;57.346;12.150;2023-06-26T00:54:42;14.90;1.00
14277;DHT22;7222;57.346;12.150;2023-06-26T00:57:09;14.90;1.00
14277;DHT22;7222;57.346;12.150;2023-06-26T00:59:36;14.80;1.00
14277;DHT22;7222;57.346;12.150;2023-06-26T01:02:04;14.70;9.70
14277;DHT22;7222;57.346;12.150;2023-06-26T01:04:32;14.70;9.10
14277;DHT22;7222;57.346;12.150;2023-06-26T01:07:01;14.70;1.00
14277;DHT22;7222;57.346;12.150;2023-06-26T01:09:28;14.60;38.00
14277;DHT22;7222;57.346;12.150;2023-06-26T01:11:57;14.60;93.30
14277;DHT22;7222;57.346;12.150;2023-06-26T01:14:24;14.60;99.90
14277;DHT22;7222;57.346;12.150;2023-06-26T01:16:51;14.50;99.90
14277;DHT22;7222;57.346;12.150;2023-06-26T01:19:24;14.50;99.90
14277;DHT22;7222;57.346;12.150;2023-06-26T01:21:58;14.40;99.90
14277;DHT22;7222;57.346;12.150;2023-06-26T01:24:33;14.40;99.90
14277;DHT22;7222;57.346;12.150;2023-06-26T01:27:04;14.30;99.90
14277;DHT22;7222;57.346;12.150;2023-06-26T01:29:32;14.30;99.90
14277;DHT22;7222;57.346;12.150;2023-06-26T01:32:01;14.30;99.90
14277;DHT22;7222;57.346;12.150;2023-06-26T01:34:28;14.30;99.90
14277;DHT22;7222;57.346;12.150;2023-06-26T01:36:55;14.20;99.90
14277;DHT22;7222;57.346;12.150;2023-06-26T01:39:22;14.20;99.90
14277;DHT22;7222;57.346;12.150;2023-06-26T01:41:49;14.10;99.90
14277;DHT22;7222;57.346;12.150;2023-06-26T01:44:25;14.10;99.90
14277;DHT22;7222;57.346;12.150;2023-06-26T01:46:59;14.10;99.90
14277;DHT22;7222;57.346;12.150;2023-06-26T01:49:34;14.00;99.90
14277;DHT22;7222;57.346;12.150;2023-06-26T01:52:08;14.00;99.90
14277;DHT22;7222;57.346;12.150;2023-06-26T01:54:45;13.90;99.90
14277;DHT22;7222;57.346;12.150;2023-06-26T01:57:14;13.90;99.90
14277;DHT22;7222;57.346;12.150;2023-06-26T01:59:46;13.90;99.90
14277;DHT22;7222;57.346;12.150;2023-06-26T02:02:14;13.90;99.90
14277;DHT22;7222;57.346;12.150;2023-06-26T02:04:41;13.80;99.90
14277;DHT22;7222;57.346;12.150;2023-06-26T02:07:08;13.80;99.90
14277;DHT22;7222;57.346;12.150;2023-06-26T02:09:36;13.70;99.90
14277;DHT22;7222;57.346;12.150;2023-06-26T02:12:03;13.70;99.90
14277;DHT22;7222;57.346;12.150;2023-06-26T02:14:30;13.70;99.90
14277;DHT22;7222;57.346;12.150;2023-06-26T02:16:59;13.70;1.00
14277;DHT22;7222;57.346;12.150;2023-06-26T02:19:26;13.70;1.00
14277;DHT22;7222;57.346;12.150;2023-06-26T02:21:53;13.70;1.00
14277;DHT22;7222;57.346;12.150;2023-06-26T02:24:20;13.60;1.00
14277;DHT22;7222;57.346;12.150;2023-06-26T02:26:47;13.60;1.00
14277;DHT22;7222;57.346;12.150;2023-06-26T02:29:15;13.60;1.00
14277;DHT22;7222;57.346;12.150;2023-06-26T02:31:42;13.60;1.00
14277;DHT22;7222;57.346;12.150;2023-06-26T02:34:10;13.60;1.00
14277;DHT22;7222;57.346;12.150;2023-06-26T02:36:38;13.60;1.00
14277;DHT22;7222;57.346;12.150;2023-06-26T02:39:05;13.50;1.00
14277;DHT22;7222;57.346;12.150;2023-06-26T02:41:32;13.50;1.00
14277;DHT22;7222;57.346;12.150;2023-06-26T02:43:59;13.50;94.20
14277;DHT22;7222;57.346;12.150;2023-06-26T02:46:26;13.50;99.90
14277;DHT22;7222;57.346;12.150;2023-06-26T02:48:52;13.50;99.90
14277;DHT22;7222;57.346;12.150;2023-06-26T02:51:21;13.50;99.90
14277;DHT22;7222;57.346;12.150;2023-06-26T02:53:48;13.40;99.90
14277;DHT22;7222;57.346;12.150;2023-06-26T02:56:14;13.50;1.00
14277;DHT22;7222;57.346;12.150;2023-06-26T02:58:41;13.50;1.00
14277;DHT22;7222;57.346;12.150;2023-06-26T03:01:09;13.60;1.00
14277;DHT22;7222;57.346;12.150;2023-06-26T03:03:36;13.60;93.20
14277;DHT22;7222;57.346;12.150;2023-06-26T03:06:06;13.50;99.90
14277;DHT22;7222;57.346;12.150;2023-06-26T03:08:36;13.60;1.00
14277;DHT22;7222;57.346;12.150;2023-06-26T03:11:04;13.70;1.00
14277;DHT22;7222;57.346;12.150;2023-06-26T03:13:32;13.70;99.90
14277;DHT22;7222;57.346;12.150;2023-06-26T03:15:59;13.70;1.00
14277;DHT22;7222;57.346;12.150;2023-06-26T03:18:26;13.70;1.00
14277;DHT22;7222;57.346;12.150;2023-06-26T03:20:54;13.80;1.00
14277;DHT22;7222;57.346;12.150;2023-06-26T03:23:21;13.70;1.00
14277;DHT22;7222;57.346;12.150;2023-06-26T03:25:50;13.70;99.90
14277;DHT22;7222;57.346;12.150;2023-06-26T03:28:17;13.90;99.90
14277;DHT22;7222;57.346;12.150;2023-06-26T03:30:44;13.70;1.00
14277;DHT22;7222;57.346;12.150;2023-06-26T03:33:11;13.80;1.00
14277;DHT22;7222;57.346;12.150;2023-06-26T03:35:38;13.70;99.90
14277;DHT22;7222;57.346;12.150;2023-06-26T03:38:05;13.70;99.90
14277;DHT22;7222;57.346;12.150;2023-06-26T03:40:32;13.80;1.00
14277;DHT22;7222;57.346;12.150;2023-06-26T03:43:01;13.80;99.90
14277;DHT22;7222;57.346;12.150;2023-06-26T03:45:28;14.00;65.80
14277;DHT22;7222;57.346;12.150;2023-06-26T03:47:55;14.00;1.00
14277;DHT22;7222;57.346;12.150;2023-06-26T03:50:21;14.10;1.00
14277;DHT22;7222;57.346;12.150;2023-06-26T03:52:48;14.10;99.90
14277;DHT22;7222;57.346;12.150;2023-06-26T03:55:17;14.30;99.90
14277;DHT22;7222;57.346;12.150;2023-06-26T03:57:44;14.40;99.90
14277;DHT22;7222;57.346;12.150;2023-06-26T04:00:14;14.30;99.90
14277;DHT22;7222;57.346;12.150;2023-06-26T04:02:41;14.80;99.90
14277;DHT22;7222;57.346;12.150;2023-06-26T04:05:08;15.10;99.90
14277;DHT22;7222;57.346;12.150;2023-06-26T04:07:37;15.10;99.90
14277;DHT22;7222;57.346;12.150;2023-06-26T04:10:05;15.10;99.90
14277;DHT22;7222;57.346;12.150;2023-06-26T04:12:32;15.00;99.90
14277;DHT22;7222;57.346;12.150;2023-06-26T04:14:59;15.00;99.90
14277;DHT22;7222;57.346;12.150;2023-06-26T04:17:28;14.90;99.90
14277;DHT22;7222;57.346;12.150;2023-06-26T04:19:55;15.10;99.90
14277;DHT22;7222;57.346;12.150;2023-06-26T04:22:22;15.10;99.90
14277;DHT22;7222;57.346;12.150;2023-06-26T04:24:50;15.10;99.90
14277;DHT22;7222;57.346;12.150;2023-06-26T04:27:17;15.20;99.90
14277;DHT22;7222;57.346;12.150;2023-06-26T04:29:44;15.30;99.90
14277;DHT22;7222;57.346;12.150;2023-06-26T04:32:11;15.40;99.90
14277;DHT22;7222;57.346;12.150;2023-06-26T04:34:40;15.50;99.90
14277;DHT22;7222;57.346;12.150;2023-06-26T04:37:09;15.50;99.90
14277;DHT22;7222;57.346;12.150;2023-06-26T04:39:36;15.60;99.90
14277;DHT22;7222;57.346;12.150;2023-06-26T04:42:04;15.70;99.90
14277;DHT22;7222;57.346;12.150;2023-06-26T04:44:32;15.80;99.90
14277;DHT22;7222;57.346;12.150;2023-06-26T04:46:59;15.90;99.90
14277;DHT22;7222;57.346;12.150;2023-06-26T04:49:26;16.10;99.90
14277;DHT22;7222;57.346;12.150;2023-06-26T04:51:56;16.10;99.90
14277;DHT22;7222;57.346;12.150;2023-06-26T04:54:26;16.20;99.90
14277;DHT22;7222;57.346;12.150;2023-06-26T04:56:53;16.40;99.90
14277;DHT22;7222;57.346;12.150;2023-06-26T04:59:21;16.40;99.90
14277;DHT22;7222;57.346;12.150;2023-06-26T05:01:48;16.50;99.90
14277;DHT22;7222;57.346;12.150;2023-06-26T05:04:15;16.60;99.90
14277;DHT22;7222;57.346;12.150;2023-06-26T05:06:42;16.70;99.90
14277;DHT22;7222;57.346;12.150;2023-06-26T05:09:11;16.90;99.90
14277;DHT22;7222;57.346;12.150;2023-06-26T05:11:38;17.00;99.90
14277;DHT22;7222;57.346;12.150;2023-06-26T05:14:05;17.20;99.90
14277;DHT22;7222;57.346;12.150;2023-06-26T05:16:33;16.90;99.90
14277;DHT22;7222;57.346;12.150;2023-06-26T05:19:01;17.00;99.90
14277;DHT22;7222;57.346;12.150;2023-06-26T05:21:29;17.50;99.90
14277;DHT22;7222;57.346;12.150;2023-06-26T05:23:57;17.80;99.90
14277;DHT22;7222;57.346;12.150;2023-06-26T05:26:27;18.00;99.90
14277;DHT22;7222;57.346;12.150;2023-06-26T05:28:55;18.20;99.90
14277;DHT22;7222;57.346;12.150;2023-06-26T05:31:23;18.50;99.90
14277;DHT22;7222;57.346;12.150;2023-06-26T05:33:51;18.60;99.90
14277;DHT22;7222;57.346;12.150;2023-06-26T05:36:21;18.60;99.90
14277;DHT22;7222;57.346;12.150;2023-06-26T05:38:49;18.70;99.90
14277;DHT22;7222;57.346;12.150;2023-06-26T05:41:17;18.90;99.90
14277;DHT22;7222;57.346;12.150;2023-06-26T05:43:46;19.10;99.90
14277;DHT22;7222;57.346;12.150;2023-06-26T05:46:13;19.30;99.90
14277;DHT22;7222;57.346;12.150;2023-06-26T05:48:40;19.50;99.90
14277;DHT22;7222;57.346;12.150;2023-06-26T05:51:08;19.70;99.90
14277;DHT22;7222;57.346;12.150;2023-06-26T05:53:35;19.70;99.90
14277;DHT22;7222;57.346;12.150;2023-06-26T05:56:03;20.00;99.90
14277;DHT22;7222;57.346;12.150;2023-06-26T05:58:31;20.10;99.90
14277;DHT22;7222;57.346;12.150;2023-06-26T06:01:00;20.20;99.90
14277;DHT22;7222;57.346;12.150;2023-06-26T06:03:27;20.20;99.90
14277;DHT22;7222;57.346;12.150;2023-06-26T06:05:54;20.30;99.90
14277;DHT22;7222;57.346;12.150;2023-06-26T06:08:21;20.40;99.90
14277;DHT22;7222;57.346;12.150;2023-06-26T06:10:48;20.60;99.90
14277;DHT22;7222;57.346;12.150;2023-06-26T06:13:15;20.90;99.90
14277;DHT22;7222;57.346;12.150;2023-06-26T06:15:42;21.00;1.00
14277;DHT22;7222;57.346;12.150;2023-06-26T06:18:11;21.20;29.30
14277;DHT22;7222;57.346;12.150;2023-06-26T06:20:38;21.30;99.90
14277;DHT22;7222;57.346;12.150;2023-06-26T06:23:05;21.20;1.00
14277;DHT22;7222;57.346;12.150;2023-06-26T06:25:32;21.30;99.90
14277;DHT22;7222;57.346;12.150;2023-06-26T06:27:59;21.50;99.90
14277;DHT22;7222;57.346;12.150;2023-06-26T06:30:26;21.90;1.00
14277;DHT22;7222;57.346;12.150;2023-06-26T06:32:53;21.70;1.00
14277;DHT22;7222;57.346;12.150;2023-06-26T06:35:22;21.90;99.90
14277;DHT22;7222;57.346;12.150;2023-06-26T06:37:49;22.00;99.90
14277;DHT22;7222;57.346;12.150;2023-06-26T06:40:16;21.80;45.00
14277;DHT22;7222;57.346;12.150;2023-06-26T06:42:43;22.00;63.50
14277;DHT22;7222;57.346;12.150;2023-06-26T06:45:10;22.10;1.00
14277;DHT22;7222;57.346;12.150;2023-06-26T06:47:37;22.40;1.00
14277;DHT22;7222;57.346;12.150;2023-06-26T06:50:05;22.70;99.90
14277;DHT22;7222;57.346;12.150;2023-06-26T06:52:43;22.80;99.90
14277;DHT22;7222;57.346;12.150;2023-06-26T06:55:09;22.90;99.90
14277;DHT22;7222;57.346;12.150;2023-06-26T06:57:38;22.90;99.90
14277;DHT22;7222;57.346;12.150;2023-06-26T07:00:06;23.20;1.00
14277;DHT22;7222;57.346;12.150;2023-06-26T07:02:34;23.30;1.00
14277;DHT22;7222;57.346;12.150;2023-06-26T07:05:02;23.60;46.30
14277;DHT22;7222;57.346;12.150;2023-06-26T07:07:31;24.10;99.90
14277;DHT22;7222;57.346;12.150;2023-06-26T07:10:02;24.30;99.90
14277;DHT22;7222;57.346;12.150;2023-06-26T07:12:29;24.30;1.00
14277;DHT22;7222;57.346;12.150;2023-06-26T07:14:56;23.80;1.00
14277;DHT22;7222;57.346;12.150;2023-06-26T07:17:23;23.60;1.00
14277;DHT22;7222;57.346;12.150;2023-06-26T07:19:50;23.80;99.90
14277;DHT22;7222;57.346;12.150;2023-06-26T07:22:18;23.60;99.90
14277;DHT22;7222;57.346;12.150;2023-06-26T07:24:46;23.80;1.00
14277;DHT22;7222;57.346;12.150;2023-06-26T07:27:15;24.30;99.90
14277;DHT22;7222;57.346;12.150;2023-06-26T07:29:43;24.10;1.00
14277;DHT22;7222;57.346;12.150;2023-06-26T07:32:11;24.00;29.50
14277;DHT22;7222;57.346;12.150;2023-06-26T07:34:37;23.90;99.90
14277;DHT22;7222;57.346;12.150;2023-06-26T07:37:05;23.90;1.00
14277;DHT22;7222;57.346;12.150;2023-06-26T07:39:31;23.80;1.00
14277;DHT22;7222;57.346;12.150;2023-06-26T07:41:58;24.20;1.00
14277;DHT22;7222;57.346;12.150;2023-06-26T07:44:27;24.20;1.00
14277;DHT22;7222;57.346;12.150;2023-06-26T07:46:54;24.30;1.00
14277;DHT22;7222;57.346;12.150;2023-06-26T07:49:20;23.90;1.00
14277;DHT22;7222;57.346;12.150;2023-06-26T07:51:47;23.80;1.00
14277;DHT22;7222;57.346;12.150;2023-06-26T07:54:14;24.20;1.00
14277;DHT22;7222;57.346;12.150;2023-06-26T07:56:54;24.60;87.60
14277;DHT22;7222;57.346;12.150;2023-06-26T07:59:22;24.70;99.90
14277;DHT22;7222;57.346;12.150;2023-06-26T08:01:52;24.60;1.00
14277;DHT22;7222;57.346;12.150;2023-06-26T08:04:21;24.50;1.00
14277;DHT22;7222;57.346;12.150;2023-06-26T08:06:49;24.10;99.90
14277;DHT22;7222;57.346;12.150;2023-06-26T08:09:17;24.20;99.90
14277;DHT22;7222;57.346;12.150;2023-06-26T08:11:45;24.40;99.90
14277;DHT22;7222;57.346;12.150;2023-06-26T08:14:12;24.40;1.00
14277;DHT22;7222;57.346;12.150;2023-06-26T08:16:39;24.10;1.00
14277;DHT22;7222;57.346;12.150;2023-06-26T08:19:08;24.30;99.90
14277;DHT22;7222;57.346;12.150;2023-06-26T08:21:35;24.90;99.90
14277;DHT22;7222;57.346;12.150;2023-06-26T08:24:01;24.60;99.90
14277;DHT22;7222;57.346;12.150;2023-06-26T08:26:29;24.50;78.70
14277;DHT22;7222;57.346;12.150;2023-06-26T08:28:56;25.00;99.90
14277;DHT22;7222;57.346;12.150;2023-06-26T08:31:23;25.30;1.00
14277;DHT22;7222;57.346;12.150;2023-06-26T08:33:50;25.10;99.90
14277;DHT22;7222;57.346;12.150;2023-06-26T08:36:19;24.90;1.00
14277;DHT22;7222;57.346;12.150;2023-06-26T08:38:46;24.30;33.30
14277;DHT22;7222;57.346;12.150;2023-06-26T08:41:13;24.50;1.00
14277;DHT22;7222;57.346;12.150;2023-06-26T08:43:40;25.00;99.90
14277;DHT22;7222;57.346;12.150;2023-06-26T08:46:07;25.00;99.90
14277;DHT22;7222;57.346;12.150;2023-06-26T08:48:35;25.00;99.90
14277;DHT22;7222;57.346;12.150;2023-06-26T08:51:09;25.10;8.60
14277;DHT22;7222;57.346;12.150;2023-06-26T08:53:43;25.30;1.00
14277;DHT22;7222;57.346;12.150;2023-06-26T08:56:15;25.20;1.00
14277;DHT22;7222;57.346;12.150;2023-06-26T08:58:43;25.00;99.90
14277;DHT22;7222;57.346;12.150;2023-06-26T09:01:11;24.80;1.00
14277;DHT22;7222;57.346;12.150;2023-06-26T09:03:38;24.70;1.00
14277;DHT22;7222;57.346;12.150;2023-06-26T09:06:06;24.90;1.00
14277;DHT22;7222;57.346;12.150;2023-06-26T09:08:34;24.90;1.00
14277;DHT22;7222;57.346;12.150;2023-06-26T09:11:02;25.40;1.00
14277;DHT22;7222;57.346;12.150;2023-06-26T09:13:30;25.20;1.00
14277;DHT22;7222;57.346;12.150;2023-06-26T09:15:57;25.90;1.00
14277;DHT22;7222;57.346;12.150;2023-06-26T09:18:24;26.40;1.00
14277;DHT22;7222;57.346;12.150;2023-06-26T09:20:52;26.50;1.00
14277;DHT22;7222;57.346;12.150;2023-06-26T09:23:19;27.00;99.90
14277;DHT22;7222;57.346;12.150;2023-06-26T09:25:51;27.60;1.00
14277;DHT22;7222;57.346;12.150;2023-06-26T09:28:20;28.10;99.90
14277;DHT22;7222;57.346;12.150;2023-06-26T09:30:47;29.40;99.90
14277;DHT22;7222;57.346;12.150;2023-06-26T09:33:16;30.00;1.00
14277;DHT22;7222;57.346;12.150;2023-06-26T09:35:44;28.50;1.00
14277;DHT22;7222;57.346;12.150;2023-06-26T09:38:12;27.90;1.00
14277;DHT22;7222;57.346;12.150;2023-06-26T09:40:40;26.70;1.00
14277;DHT22;7222;57.346;12.150;2023-06-26T09:43:09;26.60;41.20
14277;DHT22;7222;57.346;12.150;2023-06-26T09:45:40;26.80;99.90
14277;DHT22;7222;57.346;12.150;2023-06-26T09:48:07;27.90;1.00
14277;DHT22;7222;57.346;12.150;2023-06-26T09:50:35;28.90;18.50
14277;DHT22;7222;57.346;12.150;2023-06-26T09:53:07;29.60;1.00
14277;DHT22;7222;57.346;12.150;2023-06-26T09:55:35;29.20;1.00
14277;DHT22;7222;57.346;12.150;2023-06-26T09:58:03;28.60;1.00
14277;DHT22;7222;57.346;12.150;2023-06-26T10:00:30;27.80;99.90
14277;DHT22;7222;57.346;12.150;2023-06-26T10:02:59;27.60;99.90
14277;DHT22;7222;57.346;12.150;2023-06-26T10:05:26;29.30;1.00
14277;DHT22;7222;57.346;12.150;2023-06-26T10:07:54;29.70;1.00
14277;DHT22;7222;57.346;12.150;2023-06-26T10:10:22;28.70;99.90
14277;DHT22;7222;57.346;12.150;2023-06-26T10:12:56;28.10;99.90
14277;DHT22;7222;57.346;12.150;2023-06-26T10:15:24;27.50;99.90
14277;DHT22;7222;57.346;12.150;2023-06-26T10:17:53;27.80;99.90
14277;DHT22;7222;57.346;12.150;2023-06-26T10:20:24;27.70;99.90
14277;DHT22;7222;57.346;12.150;2023-06-26T10:22:52;27.80;99.90
14277;DHT22;7222;57.346;12.150;2023-06-26T10:25:23;27.60;99.90
14277;DHT22;7222;57.346;12.150;2023-06-26T10:27:53;27.40;99.90
14277;DHT22;7222;57.346;12.150;2023-06-26T10:30:23;27.50;99.90
14277;DHT22;7222;57.346;12.150;2023-06-26T10:32:51;27.30;99.90
14277;DHT22;7222;57.346;12.150;2023-06-26T10:35:18;27.80;99.90
14277;DHT22;7222;57.346;12.150;2023-06-26T10:37:48;27.50;99.90
14277;DHT22;7222;57.346;12.150;2023-06-26T10:40:21;27.70;99.90
14277;DHT22;7222;57.346;12.150;2023-06-26T10:42:48;27.70;99.90
14277;DHT22;7222;57.346;12.150;2023-06-26T10:45:21;27.60;99.90
14277;DHT22;7222;57.346;12.150;2023-06-26T10:47:48;27.20;1.00
14277;DHT22;7222;57.346;12.150;2023-06-26T10:50:19;27.80;1.00
14277;DHT22;7222;57.346;12.150;2023-06-26T10:53:07;28.30;1.00
14277;DHT22;7222;57.346;12.150;2023-06-26T10:55:35;28.20;99.90
14277;DHT22;7222;57.346;12.150;2023-06-26T10:58:02;28.20;1.00
14277;DHT22;7222;57.346;12.150;2023-06-26T11:00:29;27.70;1.00
14277;DHT22;7222;57.346;12.150;2023-06-26T11:02:57;27.20;1.00
14277;DHT22;7222;57.346;12.150;2023-06-26T11:05:27;27.40;1.00
14277;DHT22;7222;57.346;12.150;2023-06-26T11:08:06;27.40;1.00
14277;DHT22;7222;57.346;12.150;2023-06-26T11:10:59;27.50;1.00
14277;DHT22;7222;57.346;12.150;2023-06-26T11:13:26;27.70;1.00
14277;DHT22;7222;57.346;12.150;2023-06-26T11:15:54;27.50;1.00
14277;DHT22;7222;57.346;12.150;2023-06-26T11:18:22;27.90;1.00
14277;DHT22;7222;57.346;12.150;2023-06-26T11:20:50;27.20;1.00
14277;DHT22;7222;57.346;12.150;2023-06-26T11:23:22;27.40;1.00
14277;DHT22;7222;57.346;12.150;2023-06-26T11:25:49;27.50;1.00
14277;DHT22;7222;57.346;12.150;2023-06-26T11:28:16;27.30;1.00
14277;DHT22;7222;57.346;12.150;2023-06-26T11:30:43;27.50;1.00
14277;DHT22;7222;57.346;12.150;2023-06-26T11:33:10;27.20;1.00
14277;DHT22;7222;57.346;12.150;2023-06-26T11:35:37;27.20;1.00
14277;DHT22;7222;57.346;12.150;2023-06-26T11:38:04;27.30;1.00
14277;DHT22;7222;57.346;12.150;2023-06-26T11:40:34;27.30;1.00
14277;DHT22;7222;57.346;12.150;2023-06-26T11:43:02;27.50;1.00
14277;DHT22;7222;57.346;12.150;2023-06-26T11:45:29;27.40;1.00
14277;DHT22;7222;57.346;12.150;2023-06-26T11:47:57;27.40;1.00
14277;DHT22;7222;57.346;12.150;2023-06-26T11:50:25;27.70;1.00
14277;DHT22;7222;57.346;12.150;2023-06-26T11:52:56;27.70;1.00
14277;DHT22;7222;57.346;12.150;2023-06-26T11:55:24;27.50;1.00
14277;DHT22;7222;57.346;12.150;2023-06-26T11:57:53;27.20;1.00
14277;DHT22;7222;57.346;12.150;2023-06-26T12:00:21;26.90;1.00
14277;DHT22;7222;57.346;12.150;2023-06-26T12:02:48;26.70;1.00
14277;DHT22;7222;57.346;12.150;2023-06-26T12:05:17;26.40;1.00
14277;DHT22;7222;57.346;12.150;2023-06-26T12:07:46;26.30;1.00
14277;DHT22;7222;57.346;12.150;2023-06-26T12:10:14;26.40;1.00
14277;DHT22;7222;57.346;12.150;2023-06-26T12:12:41;26.30;1.00
14277;DHT22;7222;57.346;12.150;2023-06-26T12:15:13;26.50;1.00
14277;DHT22;7222;57.346;12.150;2023-06-26T12:17:41;26.30;1.00
14277;DHT22;7222;57.346;12.150;2023-06-26T12:20:17;26.60;1.00
14277;DHT22;7222;57.346;12.150;2023-06-26T12:22:45;26.20;1.00
14277;DHT22;7222;57.346;12.150;2023-06-26T12:25:12;26.30;1.00
14277;DHT22;7222;57.346;12.150;2023-06-26T12:27:39;26.00;1.00
14277;DHT22;7222;57.346;12.150;2023-06-26T12:30:07;26.00;1.00
14277;DHT22;7222;57.346;12.150;2023-06-26T12:32:36;26.30;1.00
14277;DHT22;7222;57.346;12.150;2023-06-26T12:35:03;26.50;1.00
14277;DHT22;7222;57.346;12.150;2023-06-26T12:37:36;26.70;1.00
14277;DHT22;7222;57.346;12.150;2023-06-26T12:40:04;26.40;1.00
14277;DHT22;7222;57.346;12.150;2023-06-26T12:42:33;26.80;1.00
14277;DHT22;7222;57.346;12.150;2023-06-26T12:45:10;26.60;1.00
14277;DHT22;7222;57.346;12.150;2023-06-26T12:47:39;27.00;1.00
14277;DHT22;7222;57.346;12.150;2023-06-26T12:50:08;27.00;1.00
14277;DHT22;7222;57.346;12.150;2023-06-26T12:52:35;27.10;1.00
14277;DHT22;7222;57.346;12.150;2023-06-26T12:55:02;27.10;1.00
14277;DHT22;7222;57.346;12.150;2023-06-26T12:57:29;26.70;1.00
14277;DHT22;7222;57.346;12.150;2023-06-26T12:59:56;26.70;1.00
14277;DHT22;7222;57.346;12.150;2023-06-26T13:02:22;26.10;82.20
14277;DHT22;7222;57.346;12.150;2023-06-26T13:04:51;26.20;99.90
14277;DHT22;7222;57.346;12.150;2023-06-26T13:07:17;26.30;20.00
14277;DHT22;7222;57.346;12.150;2023-06-26T13:09:44;26.70;1.00
14277;DHT22;7222;57.346;12.150;2023-06-26T13:12:14;26.80;1.00
14277;DHT22;7222;57.346;12.150;2023-06-26T13:14:41;26.50;1.00
14277;DHT22;7222;57.346;12.150;2023-06-26T13:17:07;26.40;1.00
14277;DHT22;7222;57.346;12.150;2023-06-26T13:19:34;26.50;1.00
14277;DHT22;7222;57.346;12.150;2023-06-26T13:22:03;26.90;1.00
14277;DHT22;7222;57.346;12.150;2023-06-26T13:24:30;26.20;1.00
14277;DHT22;7222;57.346;12.150;2023-06-26T13:26:56;26.00;1.00
14277;DHT22;7222;57.346;12.150;2023-06-26T13:29:24;26.00;1.00
14277;DHT22;7222;57.346;12.150;2023-06-26T13:31:50;26.00;1.00
14277;DHT22;7222;57.346;12.150;2023-06-26T13:34:21;25.90;1.00
14277;DHT22;7222;57.346;12.150;2023-06-26T13:36:49;26.10;10.40
14277;DHT22;7222;57.346;12.150;2023-06-26T13:39:17;25.90;2.70
14277;DHT22;7222;57.346;12.150;2023-06-26T13:41:44;26.00;4.80
14277;DHT22;7222;57.346;12.150;2023-06-26T13:44:11;25.90;1.00
14277;DHT22;7222;57.346;12.150;2023-06-26T13:46:38;25.90;1.00
14277;DHT22;7222;57.346;12.150;2023-06-26T13:49:05;25.80;1.00
14277;DHT22;7222;57.346;12.150;2023-06-26T13:51:32;25.50;99.90
14277;DHT22;7222;57.346;12.150;2023-06-26T13:53:59;23.90;1.00
14277;DHT22;7222;57.346;12.150;2023-06-26T13:56:28;23.10;99.90
14277;DHT22;7222;57.346;12.150;2023-06-26T13:58:56;22.80;99.90
14277;DHT22;7222;57.346;12.150;2023-06-26T14:01:23;22.40;1.00
14277;DHT22;7222;57.346;12.150;2023-06-26T14:03:50;22.30;1.00
14277;DHT22;7222;57.346;12.150;2023-06-26T14:06:17;22.90;1.00
14277;DHT22;7222;57.346;12.150;2023-06-26T14:08:44;21.50;1.00
14277;DHT22;7222;57.346;12.150;2023-06-26T14:11:11;21.50;1.00
14277;DHT22;7222;57.346;12.150;2023-06-26T14:13:40;21.70;99.90
14277;DHT22;7222;57.346;12.150;2023-06-26T14:16:06;22.50;1.00
14277;DHT22;7222;57.346;12.150;2023-06-26T14:18:33;21.00;99.90
14277;DHT22;7222;57.346;12.150;2023-06-26T14:21:00;20.90;38.40
14277;DHT22;7222;57.346;12.150;2023-06-26T14:23:29;20.40;99.90
14277;DHT22;7222;57.346;12.150;2023-06-26T14:25:56;21.20;1.00
14277;DHT22;7222;57.346;12.150;2023-06-26T14:28:24;21.00;1.00
14277;DHT22;7222;57.346;12.150;2023-06-26T14:30:52;20.30;99.90
14277;DHT22;7222;57.346;12.150;2023-06-26T14:33:19;19.60;99.90
14277;DHT22;7222;57.346;12.150;2023-06-26T14:35:46;20.30;99.90
14277;DHT22;7222;57.346;12.150;2023-06-26T14:38:13;20.50;99.90
14277;DHT22;7222;57.346;12.150;2023-06-26T14:40:40;21.10;99.90
14277;DHT22;7222;57.346;12.150;2023-06-26T14:43:08;20.10;99.90
14277;DHT22;7222;57.346;12.150;2023-06-26T14:45:35;19.70;99.90
14277;DHT22;7222;57.346;12.150;2023-06-26T14:48:04;19.50;99.90
14277;DHT22;7222;57.346;12.150;2023-06-26T14:50:31;20.00;99.90
14277;DHT22;7222;57.346;12.150;2023-06-26T14:52:58;20.60;1.00
14277;DHT22;7222;57.346;12.150;2023-06-26T14:55:25;21.30;1.00
14277;DHT22;7222;57.346;12.150;2023-06-26T14:57:52;20.80;99.90
14277;DHT22;7222;57.346;12.150;2023-06-26T15:00:19;21.00;1.00
14277;DHT22;7222;57.346;12.150;2023-06-26T15:02:47;21.80;1.00
14277;DHT22;7222;57.346;12.150;2023-06-26T15:05:15;22.20;1.00
14277;DHT22;7222;57.346;12.150;2023-06-26T15:07:42;22.20;99.90
14277;DHT22;7222;57.346;12.150;2023-06-26T15:10:10;22.40;1.00
14277;DHT22;7222;57.346;12.150;2023-06-26T15:12:36;22.50;99.90
14277;DHT22;7222;57.346;12.150;2023-06-26T15:15:04;22.50;1.00
14277;DHT22;7222;57.346;12.150;2023-06-26T15:17:33;22.50;1.00
14277;DHT22;7222;57.346;12.150;2023-06-26T15:20:00;22.40;99.90
14277;DHT22;7222;57.346;12.150;2023-06-26T15:22:28;22.40;99.90
14277;DHT22;7222;57.346;12.150;2023-06-26T15:24:55;22.20;99.90
14277;DHT22;7222;57.346;12.150;2023-06-26T15:27:22;22.20;1.00
14277;DHT22;7222;57.346;12.150;2023-06-26T15:29:49;21.90;1.00
14277;DHT22;7222;57.346;12.150;2023-06-26T15:32:16;21.80;1.00
14277;DHT22;7222;57.346;12.150;2023-06-26T15:34:45;21.30;1.00
14277;DHT22;7222;57.346;12.150;2023-06-26T15:37:13;21.60;99.90
14277;DHT22;7222;57.346;12.150;2023-06-26T15:39:42;21.70;1.00
14277;DHT22;7222;57.346;12.150;2023-06-26T15:42:09;21.70;1.00